Time;durP1;ratioP1;P1;durP2;ratioP2;P2;SDS_P1;SDS_P2;PMS_P1;PMS_P2;Temp;Humidity;BMP_temperature;BMP_pressure;BME280_temperature;BME280_humidity;BME280_pressure;Samples;Min_cycle;Max_cycle;Signal;HPM_P1;HPM_P2
2022/08/11 01:28:18;;;;;;;1999.90;999.90;;;18.50;1.00;;;;;;4876309;29;20216;-56
2022/08/11 01:31:19;;;;;;;1999.90;999.90;;;18.50;1.00;;;;;;4879688;29;20186;-56
2022/08/11 01:34:29;;;;;;;1999.90;999.90;;;18.40;41.80;;;;;;4879693;29;20190;-56
2022/08/11 01:37:12;;;;;;;1999.90;999.90;;;18.50;1.00;;;;;;4855716;29;20206;-56
2022/08/11 01:40:14;;;;;;;1999.90;999.90;;;18.50;99.90;;;;;;4879609;29;20205;-56
2022/08/11 01:45:59;;;;;;;1999.90;999.90;;;18.60;99.90;;;;;;4879182;29;20204;-56
2022/08/11 01:48:40;;;;;;;1999.90;999.90;;;18.60;99.90;;;;;;4879479;29;20186;-56
2022/08/11 01:51:37;;;;;;;1999.90;999.90;;;18.50;99.90;;;;;;4879428;29;20211;-56
2022/08/11 01:54:13;;;;;;;1999.90;999.90;;;18.50;99.90;;;;;;4879239;29;20190;-56
2022/08/11 01:56:57;;;;;;;1999.90;999.90;;;18.40;1.00;;;;;;4879285;29;20188;-56
2022/08/11 01:59:29;;;;;;;1999.90;999.90;;;18.40;99.90;;;;;;4878871;29;20556;-57
2022/08/11 02:02:44;;;;;;;1999.90;999.90;;;18.40;99.90;;;;;;4878870;29;20213;-56
2022/08/11 02:05:21;;;;;;;1999.90;999.90;;;18.40;99.90;;;;;;4878491;29;20220;-56
2022/08/11 02:07:56;;;;;;;1999.90;999.90;;;18.40;1.00;;;;;;4878818;29;20185;-55
2022/08/11 02:13:30;;;;;;;1999.90;999.90;;;18.40;1.00;;;;;;4879077;29;20237;-56
2022/08/11 02:16:13;;;;;;;1999.90;999.90;;;18.40;1.00;;;;;;4878793;29;20208;-55
2022/08/11 02:24:34;;;;;;;1999.90;999.90;;;18.40;1.00;;;;;;4878869;29;20200;-56
2022/08/11 02:27:08;;;;;;;1999.90;999.90;;;18.40;1.00;;;;;;4878870;29;20198;-56
2022/08/11 02:30:05;;;;;;;1999.90;999.90;;;18.40;99.90;;;;;;4891954;29;20244;-56
2022/08/11 02:35:26;;;;;;;1999.90;999.90;;;18.40;26.70;;;;;;4897169;29;20268;-56
2022/08/11 02:38:06;;;;;;;1999.90;999.90;;;18.40;29.20;;;;;;4897462;29;20192;-56
2022/08/11 02:40:42;;;;;;;1999.90;999.90;;;18.30;42.70;;;;;;4897342;29;20184;-56
2022/08/11 02:43:28;;;;;;;1999.90;999.90;;;18.30;86.80;;;;;;4897446;29;20207;-56
2022/08/11 02:46:04;;;;;;;1999.90;999.90;;;18.20;99.90;;;;;;4897362;29;20185;-56
2022/08/11 02:51:42;;;;;;;1999.90;999.90;;;18.10;1.00;;;;;;4897337;29;20185;-56
2022/08/11 02:54:17;;;;;;;1999.90;999.90;;;18.10;99.90;;;;;;4896964;29;20649;-56
2022/08/11 02:56:51;;;;;;;1999.90;999.90;;;18.10;99.90;;;;;;4897276;29;20214;-56
2022/08/11 02:59:50;;;;;;;1999.90;999.90;;;18.00;1.00;;;;;;4896850;29;20247;-56
2022/08/11 03:02:49;;;;;;;1999.90;999.90;;;18.00;1.00;;;;;;4896538;29;20212;-56
2022/08/11 03:05:26;;;;;;;1999.90;999.90;;;18.00;13.60;;;;;;4838997;29;20205;-56
2022/08/11 03:08:11;;;;;;;1999.90;999.90;;;18.00;70.90;;;;;;4839103;29;20569;-56
2022/08/11 03:16:43;;;;;;;1999.90;999.90;;;18.00;99.90;;;;;;4839071;29;20209;-56
2022/08/11 03:16:45;;;;;;;1999.90;999.90;;;17.90;1.00;;;;;;4839110;29;20194;-56
2022/08/11 03:19:24;;;;;;;1999.90;999.90;;;17.90;1.00;;;;;;4842304;29;20353;-56
2022/08/11 03:22:03;;;;;;;1999.90;999.90;;;17.80;99.90;;;;;;4842231;29;20239;-56
2022/08/11 03:24:39;;;;;;;1999.90;999.90;;;17.80;1.00;;;;;;4842445;29;20193;-56
2022/08/11 03:27:11;;;;;;;1999.90;999.90;;;17.80;1.00;;;;;;4842528;29;20213;-57
2022/08/11 03:29:47;;;;;;;1999.90;999.90;;;17.80;99.90;;;;;;4842221;29;20241;-56
2022/08/11 03:32:28;;;;;;;1999.90;999.90;;;17.80;99.90;;;;;;4842465;29;20621;-56
2022/08/11 03:35:00;;;;;;;1999.90;999.90;;;17.70;1.00;;;;;;4842297;29;20217;-57
2022/08/11 03:43:47;;;;;;;1999.90;999.90;;;17.60;1.00;;;;;;4900095;29;20194;-57
2022/08/11 03:46:21;;;;;;;1999.90;999.90;;;17.50;99.90;;;;;;4897710;29;20219;-56
2022/08/11 03:49:00;;;;;;;1999.90;999.90;;;17.50;1.00;;;;;;4899931;29;20202;-57
2022/08/11 03:51:32;;;;;;;1999.90;999.90;;;17.40;1.00;;;;;;4899906;29;20191;-57
2022/08/11 03:54:16;;;;;;;1999.90;999.90;;;17.40;8.80;;;;;;4899743;29;20189;-57
2022/08/11 03:57:23;;;;;;;1999.90;999.90;;;17.30;99.90;;;;;;4900132;29;20191;-56
2022/08/11 04:00:14;;;;;;;1999.90;999.90;;;17.30;1.00;;;;;;4899993;29;20198;-57
2022/08/11 04:03:20;;;;;;;1999.90;999.90;;;17.20;99.90;;;;;;4899619;29;20220;-57
2022/08/11 04:06:18;;;;;;;1999.90;999.90;;;17.20;1.00;;;;;;4899705;29;20952;-57
2022/08/11 04:09:47;;;;;;;1999.90;999.90;;;17.10;1.00;;;;;;4895050;29;20210;-57
2022/08/11 04:12:46;;;;;;;1999.90;999.90;;;17.10;99.90;;;;;;4841663;29;20200;-57
2022/08/11 04:19:09;;;;;;;1999.90;999.90;;;17.10;1.00;;;;;;4841739;29;20200;-56
2022/08/11 04:22:08;;;;;;;1999.90;999.90;;;17.10;99.90;;;;;;4841476;29;20230;-56
2022/08/11 04:24:59;;;;;;;1999.90;999.90;;;17.10;99.90;;;;;;4841444;29;20192;-57
2022/08/11 04:28:00;;;;;;;1999.90;999.90;;;17.10;99.90;;;;;;4841418;29;20222;-57
2022/08/11 04:30:34;;;;;;;1999.90;999.90;;;17.10;99.90;;;;;;4841520;29;20199;-55
2022/08/11 04:33:36;;;;;;;1999.90;999.90;;;17.00;99.90;;;;;;4841458;29;20585;-55
2022/08/11 04:37:30;;;;;;;1999.90;999.90;;;17.00;99.90;;;;;;4841380;29;20847;-55
2022/08/11 04:39:25;;;;;;;1999.90;999.90;;;17.10;99.90;;;;;;4841153;29;20209;-55
2022/08/11 04:45:35;;;;;;;1999.90;999.90;;;17.10;99.90;;;;;;4841233;29;20230;-56
2022/08/11 05:03:53;;;;;;;1999.90;999.90;;;17.30;99.90;;;;;;4898618;29;20221;-57
2022/08/11 05:06:44;;;;;;;1999.90;999.90;;;17.30;99.90;;;;;;4898618;29;20254;-56
2022/08/11 05:09:28;;;;;;;1999.90;999.90;;;17.30;1.00;;;;;;4896272;29;20224;-57
2022/08/11 05:12:29;;;;;;;1999.90;999.90;;;17.40;1.00;;;;;;4898527;29;20649;-57
2022/08/11 05:35:06;;;;;;;1999.90;999.90;;;18.60;1.00;;;;;;4898347;29;20181;-57
2022/08/11 05:37:38;;;;;;;1999.90;999.90;;;19.00;33.70;;;;;;4898276;29;20190;-55
2022/08/11 05:56:56;;;;;;;1999.90;999.90;;;19.00;19.90;;;;;;4897655;29;20764;-56
2022/08/11 05:59:25;;;;;;;1999.90;999.90;;;19.30;1.00;;;;;;4897848;29;20193;-55
2022/08/11 06:01:58;;;;;;;1999.90;999.90;;;19.90;97.30;;;;;;4897363;29;20221;-55
2022/08/11 06:04:27;;;;;;;1999.90;999.90;;;20.80;99.90;;;;;;4897318;29;20189;-55
2022/08/11 06:06:58;;;;;;;1999.90;999.90;;;21.70;1.00;;;;;;4897728;29;20201;-54
2022/08/11 06:09:30;;;;;;;1999.90;999.90;;;22.50;99.90;;;;;;4897798;29;20197;-55
2022/08/11 06:12:02;;;;;;;1999.90;999.90;;;22.90;99.90;;;;;;4897732;29;20177;-55
2022/08/11 06:14:30;;;;;;;1999.90;999.90;;;23.30;99.90;;;;;;4897709;29;20230;-55
2022/08/11 06:17:00;;;;;;;1999.90;999.90;;;23.50;1.00;;;;;;4897698;29;20209;-56
2022/08/11 06:19:36;;;;;;;1999.90;999.90;;;23.60;99.90;;;;;;4897747;29;20197;-56
2022/08/11 06:22:04;;;;;;;1999.90;999.90;;;24.10;99.90;;;;;;4897464;29;20237;-56
2022/08/11 06:24:33;;;;;;;1999.90;999.90;;;24.20;1.00;;;;;;4897447;29;20203;-56
2022/08/11 06:27:01;;;;;;;1999.90;999.90;;;24.30;1.00;;;;;;4897562;29;20201;-56
2022/08/11 06:29:30;;;;;;;1999.90;999.90;;;24.70;1.00;;;;;;4896990;29;20241;-55
2022/08/11 06:32:01;;;;;;;1999.90;999.90;;;24.80;1.00;;;;;;4897358;29;20257;-55
2022/08/11 06:34:39;;;;;;;1999.90;999.90;;;24.90;99.90;;;;;;4897476;29;20193;-55
2022/08/11 06:37:19;;;;;;;1999.90;999.90;;;25.10;99.90;;;;;;4897130;29;20189;-56
2022/08/11 06:39:52;;;;;;;1999.90;999.90;;;25.20;99.90;;;;;;4897134;29;20607;-56
2022/08/11 06:42:41;;;;;;;1999.90;999.90;;;25.80;99.90;;;;;;4897444;29;20223;-56
2022/08/11 06:45:20;;;;;;;1999.90;999.90;;;25.80;3.90;;;;;;4897133;29;20190;-56
2022/08/11 06:47:49;;;;;;;1999.90;999.90;;;26.10;1.00;;;;;;4897098;29;20196;-56
2022/08/11 06:53:05;;;;;;;1999.90;999.90;;;26.50;1.00;;;;;;4900591;29;20205;-57
2022/08/11 07:01:12;;;;;;;1999.90;999.90;;;26.30;1.00;;;;;;4901187;29;20181;-57
2022/08/11 07:03:45;;;;;;;1999.90;999.90;;;26.40;1.00;;;;;;4900689;29;20215;-57
2022/08/11 07:06:29;;;;;;;1999.90;999.90;;;26.80;1.00;;;;;;4901019;29;20193;-55
2022/08/11 07:15:43;;;;;;;1999.90;999.90;;;27.90;99.90;;;;;;4900572;29;20240;-56
2022/08/11 07:29:49;;;;;;;1999.90;999.90;;;28.70;99.90;;;;;;4860531;29;20362;-57
2022/08/11 07:32:24;;;;;;;1999.90;999.90;;;29.00;99.90;;;;;;4860812;29;20202;-57
2022/08/11 07:34:56;;;;;;;1999.90;999.90;;;29.50;99.90;;;;;;4860687;29;20194;-57
2022/08/11 07:37:29;;;;;;;1999.90;999.90;;;29.70;99.90;;;;;;4860636;29;20587;-57
2022/08/11 07:39:58;;;;;;;1999.90;999.90;;;29.60;99.90;;;;;;4860651;29;20734;-57
2022/08/11 07:42:34;;;;;;;1999.90;999.90;;;29.70;99.90;;;;;;4860512;29;20658;-57
2022/08/11 07:53:28;;;;;;;1999.90;999.90;;;30.50;75.70;;;;;;4860323;29;20195;-57
2022/08/11 07:55:58;;;;;;;1999.90;999.90;;;30.40;65.30;;;;;;4860527;29;20198;-57
2022/08/11 08:17:57;;;;;;;1999.90;999.90;;;31.70;1.00;;;;;;4899725;29;20169;-58
2022/08/11 08:20:27;;;;;;;1999.90;999.90;;;31.40;1.00;;;;;;4899615;29;20240;-58
2022/08/11 08:22:56;;;;;;;1999.90;999.90;;;31.20;1.00;;;;;;4899182;29;20221;-58
2022/08/11 08:25:26;;;;;;;1999.90;999.90;;;31.20;1.00;;;;;;4899267;29;20256;-59
2022/08/11 08:27:56;;;;;;;1999.90;999.90;;;31.10;1.00;;;;;;4899786;29;20224;-58
2022/08/11 08:33:11;;;;;;;1999.90;999.90;;;31.70;1.00;;;;;;4899241;29;20169;-56
2022/08/11 08:35:40;;;;;;;1999.90;999.90;;;31.50;1.00;;;;;;4899337;29;20205;-57
2022/08/11 08:38:08;;;;;;;1999.90;999.90;;;31.30;1.00;;;;;;4899065;29;20209;-57
2022/08/11 08:40:38;;;;;;;1999.90;999.90;;;31.50;1.00;;;;;;4899350;29;20216;-58
2022/08/11 08:43:09;;;;;;;1999.90;999.90;;;31.70;1.00;;;;;;4898972;29;20221;-58
2022/08/11 08:45:37;;;;;;;1999.90;999.90;;;31.80;1.00;;;;;;4899255;29;20195;-58
2022/08/11 08:48:09;;;;;;;1999.90;999.90;;;31.50;1.00;;;;;;4899239;29;20204;-58
2022/08/11 08:53:32;;;;;;;1999.90;999.90;;;31.80;1.00;;;;;;4899082;29;20177;-58
2022/08/11 08:56:02;;;;;;;1999.90;999.90;;;32.10;1.00;;;;;;4898848;29;20670;-57
2022/08/11 08:58:31;;;;;;;1999.90;999.90;;;32.50;1.00;;;;;;4898758;29;20190;-57
2022/08/11 09:01:00;;;;;;;1999.90;999.90;;;31.90;1.00;;;;;;4898692;29;20692;-58
2022/08/11 09:03:28;;;;;;;1999.90;999.90;;;32.10;1.00;;;;;;4898825;29;20227;-58
2022/08/11 09:05:55;;;;;;;1999.90;999.90;;;32.40;1.00;;;;;;4898872;29;20208;-57
2022/08/11 09:08:24;;;;;;;1999.90;999.90;;;32.10;1.00;;;;;;4898572;29;20197;-57
2022/08/11 09:13:36;;;;;;;1999.90;999.90;;;32.60;1.00;;;;;;4897529;29;20562;-56
2022/08/11 09:16:05;;;;;;;1999.90;999.90;;;33.10;1.00;;;;;;4897467;29;20197;-57
2022/08/11 09:18:33;;;;;;;1999.90;999.90;;;32.50;1.00;;;;;;4898629;29;20201;-57
2022/08/11 09:21:03;;;;;;;1999.90;999.90;;;32.50;1.00;;;;;;4898583;29;20211;-58
2022/08/11 09:29:04;;;;;;;1999.90;999.90;;;33.10;1.00;;;;;;4897914;29;20237;-59
2022/08/11 09:31:33;;;;;;;1999.90;999.90;;;33.20;1.00;;;;;;4898497;29;20241;-56
2022/08/11 09:34:01;;;;;;;1999.90;999.90;;;33.40;1.00;;;;;;4898123;29;20570;-56
2022/08/11 09:42:14;;;;;;;1999.90;999.90;;;34.50;1.00;;;;;;5090043;28;20178;-58
2022/08/11 09:44:47;;;;;;;1999.90;999.90;;;34.00;1.00;;;;;;5089642;28;20225;-59
2022/08/11 09:47:21;;;;;;;1999.90;999.90;;;34.00;1.00;;;;;;5089600;28;20181;-59
2022/08/11 09:49:51;;;;;;;1999.90;999.90;;;34.10;1.00;;;;;;5089563;28;20523;-59
2022/08/11 09:52:22;;;;;;;1999.90;999.90;;;33.90;1.00;;;;;;5089925;28;20206;-58
2022/08/11 09:54:52;;;;;;;1999.90;999.90;;;34.10;1.00;;;;;;5089342;28;20210;-59
2022/08/11 10:00:08;;;;;;;1999.90;999.90;;;34.90;1.00;;;;;;5089293;28;20555;-59
2022/08/11 10:02:40;;;;;;;1999.90;999.90;;;34.60;1.00;;;;;;5089603;28;20181;-59
2022/08/11 10:07:55;;;;;;;1999.90;999.90;;;34.40;1.00;;;;;;5089300;28;20650;-59
2022/08/11 10:10:23;;;;;;;1999.90;999.90;;;33.90;1.00;;;;;;5089100;28;20202;-60
2022/08/11 10:12:59;;;;;;;1999.90;999.90;;;34.20;1.00;;;;;;5089562;28;20247;-60
2022/08/11 10:15:36;;;;;;;1999.90;999.90;;;34.40;1.00;;;;;;5089046;28;20198;-60
2022/08/11 10:21:01;;;;;;;1999.90;999.90;;;34.80;1.00;;;;;;5089032;28;20235;-60
2022/08/11 10:33:58;;;;;;;1999.90;999.90;;;35.60;1.00;;;;;;5088744;28;20175;-60
2022/08/11 10:34:41;;;;;;;1999.90;999.90;;;34.90;1.00;;;;;;5088416;28;20318;-61
2022/08/11 10:37:11;;;;;;;1999.90;999.90;;;34.60;1.00;;;;;;5089057;28;20183;-61
2022/08/11 10:39:40;;;;;;;1999.90;999.90;;;34.40;1.00;;;;;;5088900;28;20194;-62
2022/08/11 10:44:56;;;;;;;1999.90;999.90;;;34.30;1.00;;;;;;5088510;28;20189;-61
2022/08/11 10:47:37;;;;;;;1999.90;999.90;;;34.20;1.00;;;;;;5078580;28;20183;-60
2022/08/11 11:01:14;;;;;;;1999.90;999.90;;;34.00;1.00;;;;;;5075088;28;20183;-59
2022/08/11 11:03:43;;;;;;;1999.90;999.90;;;34.00;1.00;;;;;;5074732;28;20279;-59
2022/08/11 11:06:24;;;;;;;1999.90;999.90;;;34.40;1.00;;;;;;5074668;28;20712;-58
2022/08/11 11:08:57;;;;;;;1999.90;999.90;;;34.70;1.00;;;;;;5074720;28;20185;-58
2022/08/11 11:17:54;;;;;;;1999.90;999.90;;;34.20;1.00;;;;;;5074940;28;20175;-58
2022/08/11 11:19:55;;;;;;;1999.90;999.90;;;35.00;1.00;;;;;;5074712;28;20185;-59
2022/08/11 11:22:38;;;;;;;1999.90;999.90;;;35.30;1.00;;;;;;5074812;28;20179;-59
2022/08/11 11:25:17;;;;;;;1999.90;999.90;;;35.50;1.00;;;;;;5074381;28;20179;-59
2022/08/11 11:28:05;;;;;;;1999.90;999.90;;;35.20;1.00;;;;;;5074544;28;20191;-63
2022/08/11 11:30:39;;;;;;;1999.90;999.90;;;35.70;1.00;;;;;;5074581;28;20209;-60
2022/08/11 11:33:15;;;;;;;1999.90;999.90;;;35.10;1.00;;;;;;5074270;28;20223;-61
2022/08/11 11:35:55;;;;;;;1999.90;999.90;;;35.00;1.00;;;;;;5074004;28;20234;-60
2022/08/11 11:38:22;;;;;;;1999.90;999.90;;;34.90;1.00;;;;;;5074480;28;20187;-60
2022/08/11 11:41:23;;;;;;;1999.90;999.90;;;34.90;1.00;;;;;;5074334;28;20207;-60
2022/08/11 11:43:39;;;;;;;1999.90;999.90;;;35.30;1.00;;;;;;5073839;28;20199;-61
2022/08/11 11:46:09;;;;;;;1999.90;999.90;;;35.50;1.00;;;;;;5074251;28;20212;-61
2022/08/11 11:48:37;;;;;;;1999.90;999.90;;;35.70;1.00;;;;;;5073946;28;20547;-59
2022/08/11 11:51:04;;;;;;;1999.90;999.90;;;35.60;1.00;;;;;;5074038;28;20195;-58
2022/08/11 11:53:32;;;;;;;1999.90;999.90;;;36.00;1.00;;;;;;5073936;28;20213;-58
2022/08/11 11:56:00;;;;;;;1999.90;999.90;;;35.80;1.00;;;;;;5073972;28;20223;-58
2022/08/11 12:01:18;;;;;;;1999.90;999.90;;;34.80;1.00;;;;;;5073609;28;20582;-58
2022/08/11 12:03:50;;;;;;;1999.90;999.90;;;35.30;1.00;;;;;;5073712;28;20543;-58
2022/08/11 12:06:21;;;;;;;1999.90;999.90;;;35.20;1.00;;;;;;5073941;28;20183;-58
2022/08/11 12:08:50;;;;;;;1999.90;999.90;;;35.00;1.00;;;;;;5073464;28;20205;-58
2022/08/11 12:14:07;;;;;;;1999.90;999.90;;;35.00;1.00;;;;;;5073353;28;20179;-59
2022/08/11 12:16:37;;;;;;;1999.90;999.90;;;35.00;1.00;;;;;;5073560;28;20215;-59
2022/08/11 12:19:10;;;;;;;1999.90;999.90;;;35.00;1.00;;;;;;5073654;28;20175;-58
2022/08/11 12:27:19;;;;;;;1999.90;999.90;;;34.50;1.00;;;;;;5073515;28;20187;-60
2022/08/11 12:27:22;;;;;;;1999.90;999.90;;;34.30;1.00;;;;;;5073433;28;20175;-58
2022/08/11 12:29:51;;;;;;;1999.90;999.90;;;34.50;1.00;;;;;;5073290;28;20198;-57
2022/08/11 12:32:21;;;;;;;1999.90;999.90;;;34.60;1.00;;;;;;5073319;28;20198;-58
2022/08/11 12:34:49;;;;;;;1999.90;999.90;;;34.70;1.00;;;;;;5072750;28;20231;-58
2022/08/11 12:37:22;;;;;;;1999.90;999.90;;;34.60;1.00;;;;;;5073236;28;20219;-58
2022/08/11 12:45:30;;;;;;;1999.90;999.90;;;35.50;1.00;;;;;;5073120;28;20175;-60
2022/08/11 12:53:54;;;;;;;1999.90;999.90;;;34.80;1.00;;;;;;5072570;28;20601;-58
2022/08/11 13:04:58;;;;;;;1999.90;999.90;;;34.90;1.00;;;;;;5072551;28;20189;-59
2022/08/11 13:07:27;;;;;;;1999.90;999.90;;;35.60;1.00;;;;;;5072803;28;20186;-58
2022/08/11 13:09:55;;;;;;;1999.90;999.90;;;35.20;1.00;;;;;;5072035;28;20667;-59
2022/08/11 13:15:11;;;;;;;1999.90;999.90;;;34.90;1.00;;;;;;5072354;28;20189;-58
2022/08/11 13:17:39;;;;;;;1999.90;999.90;;;34.40;1.00;;;;;;5072699;28;20201;-57
2022/08/11 13:20:11;;;;;;;1999.90;999.90;;;34.20;1.00;;;;;;5072591;28;20197;-59
2022/08/11 13:22:39;;;;;;;1999.90;999.90;;;34.00;1.00;;;;;;5072526;28;20201;-59
2022/08/11 13:25:08;;;;;;;1999.90;999.90;;;34.20;1.00;;;;;;5072234;28;20205;-59
2022/08/11 13:27:36;;;;;;;1999.90;999.90;;;34.10;1.00;;;;;;5072371;28;20225;-59
2022/08/11 13:32:49;;;;;;;1999.90;999.90;;;33.90;1.00;;;;;;5072503;28;20182;-57
2022/08/11 13:35:19;;;;;;;1999.90;999.90;;;33.50;1.00;;;;;;5071937;28;20227;-58
2022/08/11 13:37:49;;;;;;;1999.90;999.90;;;33.20;1.00;;;;;;5072402;28;20199;-57
2022/08/11 13:40:19;;;;;;;1999.90;999.90;;;33.30;1.00;;;;;;5072182;28;20198;-57
2022/08/11 13:42:48;;;;;;;1999.90;999.90;;;33.30;1.00;;;;;;5071963;28;20658;-57
2022/08/11 13:45:15;;;;;;;1999.90;999.90;;;33.00;1.00;;;;;;5072071;28;20195;-57
2022/08/11 13:47:45;;;;;;;1999.90;999.90;;;33.10;1.00;;;;;;5072230;28;20207;-58
2022/08/11 13:50:14;;;;;;;1999.90;999.90;;;33.40;1.00;;;;;;5072291;28;20195;-58
2022/08/11 13:52:43;;;;;;;1999.90;999.90;;;33.20;1.00;;;;;;5071802;28;20690;-57
2022/08/11 13:55:20;;;;;;;1999.90;999.90;;;33.00;1.00;;;;;;5071986;28;20203;-58
2022/08/11 13:57:50;;;;;;;1999.90;999.90;;;32.90;1.00;;;;;;5071833;28;20174;-58
2022/08/11 14:00:18;;;;;;;1999.90;999.90;;;32.70;1.00;;;;;;5072249;28;20199;-60
2022/08/11 14:02:48;;;;;;;1999.90;999.90;;;32.60;1.00;;;;;;5072177;28;20198;-58
2022/08/11 14:05:17;;;;;;;1999.90;999.90;;;32.40;1.00;;;;;;5071915;28;20183;-59
2022/08/11 14:07:50;;;;;;;1999.90;999.90;;;32.60;1.00;;;;;;5072130;28;20199;-60
2022/08/11 14:10:20;;;;;;;1999.90;999.90;;;32.90;1.00;;;;;;5071883;28;20641;-59
2022/08/11 14:15:49;;;;;;;1999.90;999.90;;;32.60;1.00;;;;;;5071687;28;20920;-59
2022/08/11 14:18:19;;;;;;;1999.90;999.90;;;32.50;1.00;;;;;;5072079;28;20203;-59
2022/08/11 14:23:40;;;;;;;1999.90;999.90;;;32.50;1.00;;;;;;5075340;28;20636;-59
2022/08/11 14:26:25;;;;;;;1999.90;999.90;;;32.50;1.00;;;;;;5075487;28;20635;-59
2022/08/11 14:28:55;;;;;;;1999.90;999.90;;;32.30;1.00;;;;;;5075588;28;20191;-60
2022/08/11 14:31:24;;;;;;;1999.90;999.90;;;32.30;1.00;;;;;;5075688;28;20191;-60
2022/08/11 14:33:54;;;;;;;1999.90;999.90;;;32.20;1.00;;;;;;5075267;28;20222;-59
2022/08/11 14:36:24;;;;;;;1999.90;999.90;;;32.20;1.00;;;;;;5075083;28;20247;-59
2022/08/11 14:38:54;;;;;;;1999.90;999.90;;;32.10;1.00;;;;;;5075508;28;20229;-59
2022/08/11 14:47:09;;;;;;;1999.90;999.90;;;32.00;1.00;;;;;;4993565;28;20224;-59
2022/08/11 14:49:38;;;;;;;1999.90;999.90;;;32.00;1.00;;;;;;4993511;28;20205;-59
2022/08/11 14:52:09;;;;;;;1999.90;999.90;;;32.10;1.00;;;;;;4993514;28;20217;-59
2022/08/11 14:57:27;;;;;;;1999.90;999.90;;;32.00;1.00;;;;;;4993316;28;20224;-60
2022/08/11 14:59:57;;;;;;;1999.90;999.90;;;31.70;1.00;;;;;;4993221;28;20196;-60
2022/08/11 15:05:09;;;;;;;1999.90;999.90;;;31.90;1.00;;;;;;4986443;28;20201;-59
2022/08/11 15:07:37;;;;;;;1999.90;999.90;;;32.00;1.00;;;;;;4993155;28;20607;-60
2022/08/11 15:10:09;;;;;;;1999.90;999.90;;;32.00;1.00;;;;;;4993150;28;20202;-60
2022/08/11 15:12:39;;;;;;;1999.90;999.90;;;32.00;1.00;;;;;;4993156;28;20190;-60
2022/08/11 15:17:55;;;;;;;1999.90;999.90;;;32.00;1.00;;;;;;5074446;28;20209;-59
2022/08/11 15:25:58;;;;;;;1999.90;999.90;;;31.80;1.00;;;;;;5074608;28;20183;-60
2022/08/11 15:45:46;;;;;;;1999.90;999.90;;;31.60;1.00;;;;;;5074385;28;20186;-59
2022/08/11 15:48:05;;;;;;;1999.90;999.90;;;31.40;1.00;;;;;;5073943;28;20641;-59
2022/08/11 15:50:34;;;;;;;1999.90;999.90;;;31.30;1.00;;;;;;5074142;28;20232;-60
2022/08/11 15:53:06;;;;;;;1999.90;999.90;;;31.20;1.00;;;;;;5073690;28;20687;-60
2022/08/11 15:55:37;;;;;;;1999.90;999.90;;;31.20;1.00;;;;;;5074145;28;20179;-60
2022/08/11 16:06:35;;;;;;;1999.90;999.90;;;31.10;1.00;;;;;;5073823;28;20178;-60
2022/08/11 16:09:04;;;;;;;1999.90;999.90;;;31.10;1.00;;;;;;5073800;28;20199;-61
2022/08/11 16:11:33;;;;;;;1999.90;999.90;;;31.00;1.00;;;;;;5073708;28;20209;-60
2022/08/11 16:16:51;;;;;;;1999.90;999.90;;;30.90;1.00;;;;;;5073327;28;20211;-61
2022/08/11 16:19:20;;;;;;;1999.90;999.90;;;31.00;1.00;;;;;;5073602;28;20205;-61
2022/08/11 16:21:51;;;;;;;1999.90;999.90;;;31.00;1.00;;;;;;5073255;28;20198;-61
2022/08/11 16:24:23;;;;;;;1999.90;999.90;;;30.90;1.00;;;;;;5073109;28;20193;-61
2022/08/11 16:26:54;;;;;;;1999.90;999.90;;;30.90;1.00;;;;;;5073179;28;20244;-61
2022/08/11 16:29:24;;;;;;;1999.90;999.90;;;30.90;1.00;;;;;;5073357;28;20189;-60
2022/08/11 16:40:11;;;;;;;1999.90;999.90;;;30.60;1.00;;;;;;5073294;28;20186;-59
2022/08/11 16:48:13;;;;;;;1999.90;999.90;;;30.50;1.00;;;;;;5073036;28;20179;-59
2022/08/11 16:50:42;;;;;;;1999.90;999.90;;;30.50;1.00;;;;;;5072647;28;20212;-59
2022/08/11 16:53:09;;;;;;;1999.90;999.90;;;30.40;1.00;;;;;;5072573;28;20674;-58
2022/08/11 16:55:37;;;;;;;1999.90;999.90;;;30.40;1.00;;;;;;5072646;28;20205;-59
2022/08/11 17:00:52;;;;;;;1999.90;999.90;;;30.20;1.00;;;;;;5072801;28;20183;-58
2022/08/11 17:14:36;;;;;;;1999.90;999.90;;;29.90;1.00;;;;;;5072447;28;20198;-58
2022/08/11 17:17:07;;;;;;;1999.90;999.90;;;29.90;1.00;;;;;;5072774;28;20210;-60
2022/08/11 17:19:37;;;;;;;1999.90;999.90;;;29.80;1.00;;;;;;5072523;28;20187;-59
2022/08/11 17:24:51;;;;;;;1999.90;999.90;;;29.80;1.00;;;;;;5072283;28;20189;-59
2022/08/11 17:27:20;;;;;;;1999.90;999.90;;;29.70;1.00;;;;;;5072534;28;20201;-57
2022/08/11 17:29:51;;;;;;;1999.90;999.90;;;29.70;1.00;;;;;;5072095;28;20560;-57
2022/08/11 17:38:00;;;;;;;1999.90;999.90;;;29.50;1.00;;;;;;5072295;28;20199;-57
2022/08/11 17:40:29;;;;;;;1999.90;999.90;;;29.50;1.00;;;;;;5072393;28;20171;-58
2022/08/11 17:48:32;;;;;;;1999.90;999.90;;;29.30;1.00;;;;;;5072126;28;20658;-59
2022/08/11 17:51:02;;;;;;;1999.90;999.90;;;29.20;1.00;;;;;;5072191;28;20532;-59
2022/08/11 18:01:54;;;;;;;1999.90;999.90;;;29.00;1.00;;;;;;5076002;28;20179;-60
2022/08/11 18:04:24;;;;;;;1999.90;999.90;;;29.00;1.00;;;;;;5075941;28;20202;-59
2022/08/11 18:06:54;;;;;;;1999.90;999.90;;;28.90;1.00;;;;;;5076069;28;20194;-59
